createdAt,value
2023-04-26T00:00:09.084Z,100462.63
2023-04-26T00:02:37.651Z,100467.94
2023-04-26T00:05:09.236Z,100470.59
2023-04-26T00:07:38.139Z,100477.66
2023-04-26T00:10:06.489Z,100436.56
2023-04-26T00:12:34.530Z,100475.31
2023-04-26T00:15:02.521Z,100463.78
2023-04-26T00:17:30.390Z,100472.59
2023-04-26T00:19:58.562Z,100474.41
2023-04-26T00:22:27.831Z,100475.34
2023-04-26T00:24:56.037Z,100380.41
2023-04-26T00:27:23.855Z,100446.31
2023-04-26T00:29:51.660Z,100472.81
2023-04-26T00:32:19.571Z,100465.75
2023-04-26T00:34:48.018Z,100469.34
2023-04-26T00:37:15.767Z,100476.31
2023-04-26T00:39:44.888Z,100458.75
2023-04-26T00:42:12.738Z,100481.66
2023-04-26T00:44:41.035Z,100450.88
2023-04-26T00:47:09.477Z,100468.38
2023-04-26T00:49:37.910Z,100465.78
2023-04-26T00:52:06.061Z,100478.09
2023-04-26T00:54:34.139Z,100483.47
2023-04-26T00:57:03.725Z,100481.72
2023-04-26T00:59:31.771Z,100478.31
2023-04-26T01:02:00.189Z,100470.38
2023-04-26T01:04:30.248Z,100475.66
2023-04-26T01:06:58.441Z,100477.41
2023-04-26T01:09:26.439Z,100452.78
2023-04-26T01:11:56.689Z,100465.13
2023-04-26T01:14:26.084Z,100482.78
2023-04-26T01:16:54.436Z,100463.41
2023-04-26T01:19:22.226Z,100496.00
2023-04-26T01:21:50.198Z,100488.91
2023-04-26T01:24:19.394Z,100486.38
2023-04-26T01:26:47.277Z,100496.06
2023-04-26T01:29:17.242Z,100477.56
2023-04-26T01:31:45.926Z,100486.41
2023-04-26T01:34:14.152Z,100496.13
2023-04-26T01:36:42.409Z,100483.72
2023-04-26T01:39:10.731Z,100478.47
2023-04-26T01:41:39.957Z,100477.59
2023-04-26T01:44:07.786Z,100488.16
2023-04-26T01:46:35.733Z,100489.06
2023-04-26T01:49:03.796Z,100484.72
2023-04-26T01:51:32.514Z,100415.16
2023-04-26T01:54:00.286Z,100462.63
2023-04-26T01:56:28.144Z,100483.75
2023-04-26T01:58:57.443Z,100487.28
2023-04-26T02:01:25.553Z,100488.16
2023-04-26T02:03:53.600Z,100482.84
2023-04-26T02:06:22.248Z,100485.53
2023-04-26T02:08:52.421Z,100489.06
2023-04-26T02:11:20.493Z,100473.25
2023-04-26T02:13:48.199Z,100437.19
2023-04-26T02:16:17.700Z,100423.16
2023-04-26T02:18:47.266Z,100505.03
2023-04-26T02:21:15.114Z,100498.88
2023-04-26T02:23:42.932Z,100465.41
2023-04-26T02:26:11.714Z,100424.06
2023-04-26T02:28:39.807Z,100491.84
2023-04-26T02:31:07.935Z,100489.16
2023-04-26T02:33:37.193Z,100476.00
2023-04-26T02:36:06.035Z,100446.97
2023-04-26T02:38:36.231Z,100496.28
2023-04-26T02:41:05.945Z,100478.69
2023-04-26T02:43:34.508Z,100488.34
2023-04-26T02:46:02.801Z,100497.19
2023-04-26T02:48:32.220Z,100460.22
2023-04-26T02:51:01.384Z,100491.91
2023-04-26T02:53:29.652Z,100494.53
2023-04-26T02:55:57.530Z,100447.88
2023-04-26T02:58:25.359Z,100423.25
2023-04-26T03:00:54.741Z,100459.31
2023-04-26T03:03:23.142Z,100484.75
2023-04-26T03:05:52.117Z,100492.72
2023-04-26T03:08:21.297Z,100491.00
2023-04-26T03:10:50.355Z,100472.56
2023-04-26T03:13:18.200Z,100489.28
2023-04-26T03:15:47.097Z,100492.78
2023-04-26T03:18:14.931Z,100497.22
2023-04-26T03:20:43.648Z,100499.88
2023-04-26T03:23:11.732Z,100492.81
2023-04-26T03:25:40.933Z,100491.03
2023-04-26T03:28:09.596Z,100493.69
2023-04-26T03:30:37.442Z,100422.41
2023-04-26T03:33:06.837Z,100478.75
2023-04-26T03:35:34.820Z,100491.94
2023-04-26T03:38:02.725Z,100494.63
2023-04-26T03:40:30.532Z,100481.38
2023-04-26T03:42:59.957Z,100491.06
2023-04-26T03:45:27.842Z,100492.84
2023-04-26T03:47:56.717Z,100494.63
2023-04-26T03:50:24.931Z,100487.53
2023-04-26T03:52:53.298Z,100486.66
2023-04-26T03:55:21.331Z,100414.50
2023-04-26T03:57:49.301Z,100492.84
2023-04-26T04:00:18.809Z,100496.38
2023-04-26T04:02:48.151Z,100469.97
2023-04-26T04:05:24.399Z,100427.72
2023-04-26T04:07:53.216Z,100478.75
2023-04-26T04:10:23.123Z,100483.19
2023-04-26T04:12:51.248Z,100297.44
2023-04-26T04:15:21.617Z,100488.41
2023-04-26T04:17:50.402Z,100394.25
2023-04-26T04:20:18.423Z,100489.31
2023-04-26T04:22:46.353Z,100489.31
2023-04-26T04:25:14.683Z,100499.00
2023-04-26T04:27:43.769Z,100501.63
2023-04-26T04:30:12.880Z,100491.91
2023-04-26T04:32:44.887Z,100505.09
2023-04-26T04:35:13.734Z,100506.84
2023-04-26T04:37:43.868Z,100506.81
2023-04-26T04:40:13.392Z,100507.63
2023-04-26T04:42:46.668Z,100512.03
2023-04-26T04:45:16.364Z,100511.13
2023-04-26T04:47:46.727Z,100445.13
2023-04-26T04:50:15.294Z,100518.03
2023-04-26T04:52:44.386Z,100519.72
2023-04-26T04:55:12.824Z,100518.66
2023-04-26T04:57:43.130Z,100516.91
2023-04-26T05:00:12.972Z,100517.75
2023-04-26T05:02:50.265Z,100522.13
2023-04-26T05:05:18.306Z,100518.66
2023-04-26T05:07:46.397Z,100530.84
2023-04-26T05:10:15.096Z,100505.19
2023-04-26T05:12:42.987Z,100519.25
2023-04-26T05:15:11.744Z,100526.38
2023-04-26T05:17:40.771Z,100528.47
2023-04-26T05:20:20.567Z,100513.28
2023-04-26T05:22:48.521Z,100520.22
2023-04-26T05:25:17.099Z,100486.91
2023-04-26T05:27:47.301Z,100532.78
2023-04-26T05:30:28.481Z,100526.53
2023-04-26T05:33:13.981Z,100532.34
2023-04-26T05:35:49.813Z,100519.25
2023-04-26T05:38:17.753Z,100529.66
2023-04-26T05:40:45.578Z,100532.25
2023-04-26T05:43:13.448Z,100534.94
2023-04-26T05:45:41.997Z,100533.44
2023-04-26T05:48:09.868Z,100528.16
2023-04-26T05:50:39.593Z,100538.88
2023-04-26T05:53:09.797Z,100520.34
2023-04-26T05:55:37.843Z,100535.28
2023-04-26T05:58:06.434Z,100538.72
2023-04-26T06:00:34.464Z,100532.53
2023-04-26T06:03:02.636Z,100537.97
2023-04-26T06:05:30.986Z,100552.19
2023-04-26T06:07:59.121Z,100546.97
2023-04-26T06:10:28.573Z,100546.22
2023-04-26T06:12:56.439Z,100548.00
2023-04-26T06:15:27.772Z,100538.94
2023-04-26T06:17:56.307Z,100548.56
2023-04-26T06:20:24.319Z,100545.72
2023-04-26T06:22:52.062Z,100545.63
2023-04-26T06:25:20.379Z,100484.09
2023-04-26T06:27:50.342Z,100556.72
2023-04-26T06:30:18.244Z,100517.16
2023-04-26T06:32:48.396Z,100561.00
2023-04-26T06:35:16.427Z,100559.47
2023-04-26T06:37:44.589Z,100560.31
2023-04-26T06:40:15.676Z,100568.13
2023-04-26T06:42:44.297Z,100571.44
2023-04-26T06:45:19.719Z,100570.59
2023-04-26T06:47:47.722Z,100564.47
2023-04-26T06:50:15.912Z,100572.22
2023-04-26T06:52:43.725Z,100581.16
2023-04-26T06:55:12.080Z,100581.47
2023-04-26T06:57:40.168Z,100576.13
2023-04-26T07:00:10.114Z,100582.25
2023-04-26T07:02:39.379Z,100583.03
2023-04-26T07:05:08.369Z,100550.66
2023-04-26T07:07:36.185Z,100564.28
2023-04-26T07:10:04.052Z,100573.91
2023-04-26T07:12:32.077Z,100578.03
2023-04-26T07:15:01.323Z,100583.47
2023-04-26T07:17:29.224Z,100576.41
2023-04-26T07:19:58.288Z,100298.66
2023-04-26T07:22:26.003Z,100562.75
2023-04-26T07:24:53.979Z,100575.28
2023-04-26T07:27:21.917Z,100564.91
2023-04-26T07:29:49.576Z,100576.13
2023-04-26T07:32:17.443Z,100580.38
2023-04-26T07:34:45.200Z,100519.97
2023-04-26T07:37:14.318Z,100571.59
2023-04-26T07:39:42.012Z,100576.34
2023-04-26T07:42:09.915Z,100504.28
2023-04-26T07:44:37.741Z,100580.75
2023-04-26T07:47:05.482Z,100557.41
2023-04-26T07:49:33.292Z,100581.31
2023-04-26T07:52:02.497Z,100581.59
2023-04-26T07:54:31.792Z,100569.56
2023-04-26T07:56:59.565Z,100569.47
2023-04-26T07:59:27.486Z,100579.69
2023-04-26T08:01:55.358Z,100566.31
2023-04-26T08:04:32.556Z,100571.38
2023-04-26T08:07:01.514Z,100575.81
2023-04-26T08:09:30.616Z,100574.63
2023-04-26T08:12:00.126Z,100566.16
2023-04-26T08:14:28.724Z,100566.72
2023-04-26T08:16:56.670Z,100570.31
2023-04-26T08:19:26.671Z,100574.31
2023-04-26T08:21:54.640Z,100477.66
2023-04-26T08:24:22.498Z,100567.22
2023-04-26T08:26:50.338Z,100568.38
2023-04-26T08:29:20.302Z,100565.06
2023-04-26T08:31:48.102Z,100570.22
2023-04-26T08:34:15.939Z,100560.34
2023-04-26T08:36:44.005Z,100566.75
2023-04-26T08:39:12.428Z,100566.31
2023-04-26T08:41:45.080Z,100564.31
2023-04-26T08:44:13.142Z,100567.81
2023-04-26T08:46:51.640Z,100571.63
2023-04-26T08:49:28.334Z,100560.28
2023-04-26T08:51:57.849Z,100568.06
2023-04-26T08:54:27.080Z,100574.53
2023-04-26T08:56:59.935Z,100574.50
2023-04-26T08:59:27.938Z,100549.22
2023-04-26T09:01:58.096Z,100571.91
2023-04-26T09:04:26.253Z,100581.84
2023-04-26T09:06:59.584Z,100584.22
2023-04-26T09:09:29.767Z,100582.91
2023-04-26T09:11:58.285Z,100580.47
2023-04-26T09:14:27.451Z,100571.38
2023-04-26T09:16:57.612Z,100577.19
2023-04-26T09:19:36.870Z,100578.22
2023-04-26T09:22:06.305Z,100582.25
2023-04-26T09:24:49.073Z,100582.06
2023-04-26T09:27:17.456Z,100572.72
2023-04-26T09:29:59.263Z,100576.13
2023-04-26T09:32:29.311Z,100583.16
2023-04-26T09:34:57.072Z,100522.19
2023-04-26T09:37:24.969Z,100585.34
2023-04-26T09:39:53.278Z,100572.22
2023-04-26T09:42:21.265Z,100579.41
2023-04-26T09:44:49.196Z,100582.22
2023-04-26T09:47:17.300Z,100578.88
2023-04-26T09:49:48.887Z,100568.84
2023-04-26T09:52:17.875Z,100561.41
2023-04-26T09:54:47.724Z,100576.66
2023-04-26T09:57:16.687Z,100571.41
2023-04-26T09:59:46.219Z,100565.06
2023-04-26T10:02:19.381Z,100582.47
2023-04-26T10:04:50.558Z,100577.47
2023-04-26T10:07:20.402Z,100572.31
2023-04-26T10:09:48.920Z,100569.56
2023-04-26T10:12:18.138Z,100586.75
2023-04-26T10:14:47.602Z,100576.59
2023-04-26T10:17:15.860Z,100544.06
2023-04-26T10:19:46.425Z,100582.31
2023-04-26T10:22:20.961Z,100580.22
2023-04-26T10:24:50.024Z,100571.50
2023-04-26T10:27:17.968Z,100512.69
2023-04-26T10:30:09.193Z,100576.13
2023-04-26T10:33:22.150Z,100574.53
2023-04-26T10:36:05.307Z,100554.59
2023-04-26T10:38:36.361Z,100571.13
2023-04-26T10:41:30.881Z,100565.78
2023-04-26T10:44:01.487Z,100558.47
2023-04-26T10:46:40.769Z,100545.06
2023-04-26T10:49:16.949Z,100552.78
2023-04-26T10:52:11.298Z,100538.88
2023-04-26T10:55:06.257Z,100555.72
2023-04-26T10:57:51.489Z,100539.91
2023-04-26T11:00:34.349Z,100477.22
2023-04-26T11:03:08.761Z,100547.47
2023-04-26T11:05:52.088Z,100546.34
2023-04-26T11:08:21.721Z,100527.81
2023-04-26T11:10:58.683Z,100527.78
2023-04-26T11:13:26.754Z,100541.84
2023-04-26T11:16:02.899Z,100513.53
2023-04-26T11:18:31.679Z,100536.03
2023-04-26T11:20:59.884Z,100544.41
2023-04-26T11:23:30.047Z,100546.69
2023-04-26T11:25:59.085Z,100540.84
2023-04-26T11:28:26.950Z,100547.41
2023-04-26T11:30:57.348Z,100510.22
2023-04-26T11:33:25.179Z,100541.25
2023-04-26T11:35:54.169Z,100518.81
2023-04-26T11:38:23.792Z,100441.19
2023-04-26T11:40:56.276Z,100555.75
2023-04-26T11:43:24.321Z,100560.97
2023-04-26T11:45:52.309Z,100532.03
2023-04-26T11:48:22.209Z,100563.50
2023-04-26T11:50:50.459Z,100572.25
2023-04-26T11:53:18.624Z,100557.34
2023-04-26T11:55:46.576Z,100502.13
2023-04-26T11:58:15.698Z,100571.44
2023-04-26T12:01:00.390Z,100571.38
2023-04-26T12:03:35.383Z,100560.31
2023-04-26T12:06:03.908Z,100575.44
2023-04-26T12:08:33.770Z,100575.44
2023-04-26T12:11:02.516Z,100571.66
2023-04-26T12:13:30.607Z,100575.44
2023-04-26T12:15:58.532Z,100578.25
2023-04-26T12:18:33.477Z,100578.97
2023-04-26T12:21:02.141Z,100581.81
2023-04-26T12:23:39.166Z,100580.41
2023-04-26T12:26:07.476Z,100579.09
2023-04-26T12:28:35.240Z,100580.03
2023-04-26T12:31:04.487Z,100578.13
2023-04-26T12:33:33.814Z,100582.47
2023-04-26T12:36:07.716Z,100472.56
2023-04-26T12:38:36.423Z,100406.19
2023-04-26T12:41:04.449Z,100507.38
2023-04-26T12:43:32.762Z,100444.53
2023-04-26T12:46:01.084Z,100564.19
2023-04-26T12:48:28.979Z,100566.50
2023-04-26T12:50:58.206Z,100566.75
2023-04-26T12:53:26.064Z,100570.94
2023-04-26T12:55:53.873Z,100564.50
2023-04-26T12:58:22.371Z,100563.78
2023-04-26T13:00:51.213Z,100571.72
2023-04-26T13:03:19.442Z,100512.13
2023-04-26T13:05:47.572Z,100567.06
2023-04-26T13:08:16.870Z,100569.34
2023-04-26T13:10:44.830Z,100556.94
2023-04-26T13:13:12.973Z,100572.75
2023-04-26T13:15:41.389Z,100566.28
2023-04-26T13:18:09.303Z,100564.50
2023-04-26T13:20:38.118Z,100572.41
2023-04-26T13:23:06.006Z,100569.22
2023-04-26T13:25:35.312Z,100566.94
2023-04-26T13:28:03.076Z,100562.28
2023-04-26T13:30:31.193Z,100529.78
2023-04-26T13:33:00.294Z,100562.81
2023-04-26T13:35:28.384Z,100580.25
2023-04-26T13:37:56.303Z,100513.44
2023-04-26T13:40:24.257Z,100578.34
2023-04-26T13:42:53.474Z,100581.59
2023-04-26T13:45:21.469Z,100580.00
2023-04-26T13:47:49.345Z,100583.09
2023-04-26T13:50:17.492Z,100581.03
2023-04-26T13:52:45.627Z,100558.56
2023-04-26T13:55:14.490Z,100580.06
2023-04-26T13:57:42.614Z,100525.88
2023-04-26T14:00:14.056Z,100574.47
2023-04-26T14:02:42.100Z,100580.09
2023-04-26T14:05:10.621Z,100579.38
2023-04-26T14:07:38.539Z,100561.69
2023-04-26T14:10:07.481Z,100579.78
2023-04-26T14:12:35.388Z,100570.09
2023-04-26T14:15:05.598Z,100552.28
2023-04-26T14:17:34.824Z,100578.09
2023-04-26T14:20:02.699Z,100583.25
2023-04-26T14:22:30.591Z,100581.91
2023-04-26T14:24:58.464Z,100590.00
2023-04-26T14:27:26.932Z,100531.59
2023-04-26T14:29:54.709Z,100585.16
2023-04-26T14:32:22.569Z,100593.19
2023-04-26T14:34:51.845Z,100584.31
2023-04-26T14:37:22.581Z,100589.25
2023-04-26T14:39:50.771Z,100587.19
2023-04-26T14:42:18.824Z,100588.44
2023-04-26T14:44:47.666Z,100581.25
2023-04-26T14:47:15.655Z,100574.66
2023-04-26T14:49:43.797Z,100577.50
2023-04-26T14:52:13.227Z,100576.31
2023-04-26T14:54:41.491Z,100559.22
2023-04-26T14:57:09.386Z,100564.88
2023-04-26T14:59:37.764Z,100533.63
2023-04-26T15:02:06.050Z,100571.72
2023-04-26T15:04:34.304Z,100552.00
2023-04-26T15:07:02.713Z,100571.81
2023-04-26T15:09:32.263Z,100568.38
2023-04-26T15:12:00.271Z,100525.34
2023-04-26T15:14:28.122Z,100555.28
2023-04-26T15:16:56.060Z,100567.56
2023-04-26T15:19:24.021Z,100562.91
2023-04-26T15:21:52.102Z,100512.97
2023-04-26T15:24:20.032Z,100565.09
2023-04-26T15:26:49.245Z,100481.84
2023-04-26T15:29:17.182Z,100560.91
2023-04-26T15:31:45.106Z,100551.91
2023-04-26T15:34:13.233Z,100556.44
2023-04-26T15:36:41.163Z,100532.47
2023-04-26T15:39:09.472Z,100560.09
2023-04-26T15:41:37.364Z,100545.50
2023-04-26T15:44:06.542Z,100557.63
2023-04-26T15:46:36.121Z,100541.28
2023-04-26T15:49:05.987Z,100556.88
2023-04-26T15:51:33.843Z,100546.09
2023-04-26T15:54:01.912Z,100537.03
2023-04-26T15:56:29.865Z,100492.63
2023-04-26T15:58:58.165Z,100430.41
2023-04-26T16:01:27.479Z,100515.28
2023-04-26T16:03:55.482Z,100554.97
2023-04-26T16:06:23.499Z,100552.78
2023-04-26T16:08:51.359Z,100545.84
2023-04-26T16:11:19.310Z,100544.44
2023-04-26T16:13:51.774Z,100551.88
2023-04-26T16:16:20.133Z,100559.56
2023-04-26T16:18:49.385Z,100549.38
2023-04-26T16:21:17.488Z,100549.00
2023-04-26T16:23:45.347Z,100555.88
2023-04-26T16:26:13.237Z,100514.16
2023-04-26T16:28:41.116Z,100532.00
2023-04-26T16:31:09.417Z,100546.44
2023-04-26T16:33:37.516Z,100553.31
2023-04-26T16:36:07.813Z,100509.81
2023-04-26T16:38:35.458Z,100555.94
2023-04-26T16:41:03.770Z,100554.13
2023-04-26T16:43:32.751Z,100528.16
2023-04-26T16:46:02.244Z,100551.88
2023-04-26T16:48:32.777Z,100541.28
2023-04-26T16:51:00.756Z,100536.31
2023-04-26T16:53:30.537Z,100548.22
2023-04-26T16:55:59.036Z,100520.22
2023-04-26T16:58:27.364Z,100555.22
2023-04-26T17:00:55.306Z,100550.44
2023-04-26T17:03:23.932Z,100559.06
2023-04-26T17:05:52.065Z,100556.91
2023-04-26T17:08:20.838Z,100559.38
2023-04-26T17:10:51.736Z,100555.38
2023-04-26T17:13:20.123Z,100560.13
2023-04-26T17:15:48.224Z,100551.25
2023-04-26T17:18:16.127Z,100549.56
2023-04-26T17:20:44.041Z,100564.41
2023-04-26T17:23:11.863Z,100563.19
2023-04-26T17:25:39.752Z,100564.75
2023-04-26T17:28:09.935Z,100568.16
2023-04-26T17:30:38.370Z,100535.16
2023-04-26T17:33:07.459Z,100562.97
2023-04-26T17:35:35.519Z,100565.53
2023-04-26T17:38:03.354Z,100565.13
2023-04-26T17:40:31.380Z,100569.06
2023-04-26T17:42:59.456Z,100536.59
2023-04-26T17:45:29.179Z,100560.50
2023-04-26T17:47:57.285Z,100546.16
2023-04-26T17:50:25.092Z,100545.66
2023-04-26T17:52:53.250Z,100577.19
2023-04-26T17:55:21.087Z,100561.72
2023-04-26T17:57:48.874Z,100577.53
2023-04-26T18:00:17.388Z,100578.44
2023-04-26T18:02:46.830Z,100575.31
2023-04-26T18:05:15.290Z,100578.28
2023-04-26T18:07:43.098Z,100554.47
2023-04-26T18:10:11.406Z,100581.19
2023-04-26T18:12:39.823Z,100580.34
2023-04-26T18:15:10.146Z,100581.19
2023-04-26T18:17:37.828Z,100587.50
2023-04-26T18:20:08.365Z,100577.56
2023-04-26T18:22:36.218Z,100585.69
2023-04-26T18:25:04.258Z,100553.38
2023-04-26T18:27:32.920Z,100569.09
2023-04-26T18:30:01.461Z,100586.94
2023-04-26T18:32:29.265Z,100595.94
2023-04-26T18:34:57.144Z,100600.44
2023-04-26T18:37:26.774Z,100600.47
2023-04-26T18:39:54.545Z,100597.69
2023-04-26T18:42:22.331Z,100600.59
2023-04-26T18:44:50.730Z,100604.91
2023-04-26T18:47:18.629Z,100603.50
2023-04-26T18:49:46.987Z,100602.28
2023-04-26T18:52:14.900Z,100609.31
2023-04-26T18:54:44.059Z,100587.56
2023-04-26T18:57:11.977Z,100611.00
2023-04-26T18:59:39.834Z,100607.06
2023-04-26T19:02:08.124Z,100613.31
2023-04-26T19:04:36.410Z,100612.41
2023-04-26T19:07:04.404Z,100513.16
2023-04-26T19:09:42.735Z,100616.44
2023-04-26T19:12:16.040Z,100603.78
2023-04-26T19:14:43.823Z,100616.84
2023-04-26T19:17:11.597Z,100612.53
2023-04-26T19:19:39.382Z,100628.03
2023-04-26T19:22:07.327Z,100631.56
2023-04-26T19:24:35.112Z,100637.88
2023-04-26T19:27:02.924Z,100635.19
2023-04-26T19:29:32.086Z,100583.56
2023-04-26T19:32:00.547Z,100617.88
2023-04-26T19:34:28.505Z,100634.31
2023-04-26T19:36:56.284Z,100632.72
2023-04-26T19:39:24.205Z,100629.44
2023-04-26T19:41:52.072Z,100641.75
2023-04-26T19:44:20.260Z,100629.13
2023-04-26T19:46:49.477Z,100635.28
2023-04-26T19:49:17.305Z,100633.66
2023-04-26T19:51:45.154Z,100630.19
2023-04-26T19:54:12.930Z,100645.25
2023-04-26T19:56:40.735Z,100649.72
2023-04-26T19:59:09.326Z,100618.72
2023-04-26T20:01:37.358Z,100630.41
2023-04-26T20:04:06.754Z,100645.59
2023-04-26T20:06:34.646Z,100644.81
2023-04-26T20:09:02.514Z,100621.19
2023-04-26T20:11:30.383Z,100657.72
2023-04-26T20:13:58.365Z,100639.91
2023-04-26T20:16:26.285Z,100655.75
2023-04-26T20:18:54.156Z,100658.41
2023-04-26T20:21:23.440Z,100656.78
2023-04-26T20:23:51.320Z,100657.72
2023-04-26T20:26:19.083Z,100559.41
2023-04-26T20:28:47.573Z,100659.69
2023-04-26T20:31:15.423Z,100655.41
2023-04-26T20:33:43.305Z,100667.81
2023-04-26T20:36:11.438Z,100663.56
2023-04-26T20:38:40.697Z,100651.28
2023-04-26T20:41:08.506Z,100658.31
2023-04-26T20:43:36.366Z,100662.06
2023-04-26T20:46:04.507Z,100669.19
2023-04-26T20:48:32.374Z,100669.19
2023-04-26T20:51:01.932Z,100665.78
2023-04-26T20:53:29.933Z,100643.94
2023-04-26T20:55:59.109Z,100672.00
2023-04-26T20:58:26.956Z,100669.28
2023-04-26T21:00:55.730Z,100667.50
2023-04-26T21:03:23.724Z,100666.63
2023-04-26T21:05:51.789Z,100657.94
2023-04-26T21:08:19.588Z,100660.72
2023-04-26T21:10:47.508Z,100666.25
2023-04-26T21:13:16.916Z,100674.91
2023-04-26T21:15:44.695Z,100672.06
2023-04-26T21:18:12.561Z,100673.84
2023-04-26T21:20:40.416Z,100666.94
2023-04-26T21:23:08.203Z,100673.28
2023-04-26T21:25:36.018Z,100674.16
2023-04-26T21:28:03.871Z,100671.41
2023-04-26T21:30:33.117Z,100647.00
2023-04-26T21:33:01.072Z,100674.28
2023-04-26T21:35:29.146Z,100660.22
2023-04-26T21:37:57.100Z,100670.84
2023-04-26T21:40:25.202Z,100672.81
2023-04-26T21:43:04.469Z,100677.31
2023-04-26T21:45:35.526Z,100674.72
2023-04-26T21:48:04.450Z,100655.34
2023-04-26T21:50:32.343Z,100677.41
2023-04-26T21:53:00.340Z,100630.06
2023-04-26T21:55:28.399Z,100676.53
2023-04-26T21:57:56.212Z,100640.59
2023-04-26T22:00:24.265Z,100675.75
2023-04-26T22:02:53.703Z,100672.22
2023-04-26T22:05:22.267Z,100669.66
2023-04-26T22:07:50.764Z,100661.22
2023-04-26T22:10:18.655Z,100666.69
2023-04-26T22:12:47.254Z,100676.19
2023-04-26T22:15:15.203Z,100670.09
2023-04-26T22:17:43.308Z,100674.88
2023-04-26T22:20:14.194Z,100645.81
2023-04-26T22:22:41.977Z,100673.09
2023-04-26T22:25:10.628Z,100645.88
2023-04-26T22:27:38.350Z,100680.38
2023-04-26T22:30:22.947Z,100663.09
2023-04-26T22:32:54.840Z,100673.78
2023-04-26T22:35:24.923Z,100688.09
2023-04-26T22:37:53.129Z,100674.09
2023-04-26T22:40:21.444Z,100684.00
2023-04-26T22:42:49.193Z,100691.19
2023-04-26T22:45:17.031Z,100693.81
2023-04-26T22:47:44.895Z,100690.28
2023-04-26T22:50:13.458Z,100693.28
2023-04-26T22:52:42.813Z,100699.72
2023-04-26T22:55:11.163Z,100698.25
2023-04-26T22:57:39.005Z,100642.00
2023-04-26T23:00:09.858Z,100631.53
2023-04-26T23:02:37.782Z,100699.28
2023-04-26T23:05:09.514Z,100690.63
2023-04-26T23:07:37.686Z,100698.50
2023-04-26T23:10:08.009Z,100701.31
2023-04-26T23:12:35.977Z,100703.97
2023-04-26T23:15:05.037Z,100710.16
2023-04-26T23:17:34.077Z,100715.50
2023-04-26T23:20:02.175Z,100714.72
2023-04-26T23:22:29.952Z,100717.44
2023-04-26T23:24:57.769Z,100713.13
2023-04-26T23:27:26.949Z,100648.19
2023-04-26T23:29:54.682Z,100720.38
2023-04-26T23:32:22.495Z,100724.00
2023-04-26T23:34:50.252Z,100715.91
2023-04-26T23:37:18.192Z,100729.19
2023-04-26T23:39:46.029Z,100713.34
2023-04-26T23:42:13.929Z,100720.53
2023-04-26T23:44:43.128Z,100697.47
2023-04-26T23:47:10.941Z,100718.56
2023-04-26T23:49:38.673Z,100716.75
2023-04-26T23:52:06.406Z,100724.69
2023-04-26T23:54:34.409Z,100722.91
2023-04-26T23:57:03.965Z,100735.44
2023-04-26T23:59:31.977Z,100723.19
